createdAt,value
2022-08-02T00:00:57.628Z,17.50
2022-08-02T00:06:00.651Z,17.50
2022-08-02T00:11:03.459Z,17.50
2022-08-02T00:16:06.429Z,17.50
2022-08-02T00:21:09.132Z,17.70
2022-08-02T00:26:14.518Z,17.70
2022-08-02T00:31:17.514Z,17.80
2022-08-02T00:36:20.469Z,17.70
2022-08-02T00:41:24.844Z,17.90
2022-08-02T00:46:27.656Z,17.90
2022-08-02T00:51:30.320Z,17.90
2022-08-02T00:56:33.548Z,18.00
2022-08-02T01:01:39.318Z,17.80
2022-08-02T01:07:12.655Z,17.80
2022-08-02T01:12:16.159Z,17.80
2022-08-02T01:17:21.168Z,17.80
2022-08-02T01:23:02.143Z,17.90
2022-08-02T01:28:28.959Z,18.00
2022-08-02T01:33:39.669Z,18.10
2022-08-02T01:38:53.614Z,18.20
2022-08-02T01:44:01.223Z,18.20
2022-08-02T01:49:08.671Z,18.30
2022-08-02T01:54:17.151Z,18.30
2022-08-02T01:59:23.327Z,18.40
2022-08-02T02:04:28.369Z,18.50
2022-08-02T02:09:34.697Z,18.50
2022-08-02T02:14:38.633Z,18.50
2022-08-02T02:19:42.534Z,18.50
2022-08-02T02:24:45.425Z,18.50
2022-08-02T02:29:50.317Z,18.50
2022-08-02T02:34:54.488Z,18.50
2022-08-02T02:39:58.613Z,18.50
2022-08-02T02:45:02.804Z,18.50
2022-08-02T02:50:06.776Z,18.50
2022-08-02T02:55:10.527Z,18.50
2022-08-02T03:00:16.066Z,18.50
2022-08-02T03:05:19.375Z,18.50
2022-08-02T03:10:22.438Z,18.50
2022-08-02T03:15:28.344Z,18.50
2022-08-02T03:20:31.177Z,18.50
2022-08-02T03:25:34.107Z,18.40
2022-08-02T03:30:36.874Z,18.40
2022-08-02T03:35:42.013Z,18.40
2022-08-02T03:40:46.687Z,18.50
2022-08-02T03:45:51.045Z,18.50
2022-08-02T03:50:54.474Z,18.50
2022-08-02T03:55:57.997Z,18.50
2022-08-02T04:01:01.298Z,18.50
2022-08-02T04:06:05.018Z,18.50
2022-08-02T04:11:27.778Z,18.50
2022-08-02T04:16:40.174Z,18.50
2022-08-02T04:21:51.265Z,18.50
2022-08-02T04:26:57.970Z,18.50
2022-08-02T04:32:10.186Z,18.60
2022-08-02T04:37:16.665Z,18.60
2022-08-02T04:42:24.219Z,18.70
2022-08-02T04:48:02.242Z,18.70
2022-08-02T04:52:50.047Z,18.70
2022-08-02T04:57:55.427Z,18.70
2022-08-02T05:02:59.726Z,18.80
2022-08-02T05:08:02.814Z,18.80
2022-08-02T05:13:06.248Z,18.90
2022-08-02T05:18:09.207Z,18.80
2022-08-02T05:23:12.265Z,18.90
2022-08-02T05:28:15.160Z,18.90
2022-08-02T05:33:18.250Z,18.90
2022-08-02T05:38:23.496Z,19.00
2022-08-02T05:43:29.282Z,19.00
2022-08-02T05:48:32.490Z,19.10
2022-08-02T05:53:52.401Z,19.20
2022-08-02T05:58:58.362Z,19.10
2022-08-02T06:04:05.154Z,19.20
2022-08-02T06:09:17.077Z,19.50
2022-08-02T06:14:30.483Z,20.00
2022-08-02T06:19:37.329Z,20.40
2022-08-02T06:24:57.029Z,20.50
2022-08-02T06:30:00.964Z,20.40
2022-08-02T06:35:07.555Z,20.10
2022-08-02T06:40:30.580Z,20.20
2022-08-02T06:45:35.191Z,20.10
2022-08-02T06:50:39.301Z,20.00
2022-08-02T06:55:43.654Z,20.40
2022-08-02T07:00:47.691Z,20.90
2022-08-02T07:05:50.745Z,21.20
2022-08-02T07:10:54.153Z,21.30
2022-08-02T07:15:57.750Z,21.40
2022-08-02T07:21:00.755Z,21.80
2022-08-02T07:26:05.830Z,21.90
2022-08-02T07:31:08.874Z,22.50
2022-08-02T07:36:16.707Z,22.60
2022-08-02T07:41:20.094Z,22.30
2022-08-02T07:46:26.051Z,22.70
2022-08-02T07:51:33.755Z,22.80
2022-08-02T07:56:37.634Z,22.40
2022-08-02T08:01:41.132Z,22.60
2022-08-02T08:06:52.280Z,22.60
2022-08-02T08:11:55.123Z,23.30
2022-08-02T08:16:58.181Z,23.90
2022-08-02T08:22:02.150Z,23.70
2022-08-02T08:27:06.462Z,23.50
2022-08-02T08:32:15.840Z,24.50
2022-08-02T08:37:21.830Z,23.80
2022-08-02T08:42:25.430Z,24.80
2022-08-02T08:47:52.443Z,25.30
2022-08-02T08:53:07.264Z,25.70
2022-08-02T08:58:11.894Z,25.90
2022-08-02T09:03:15.030Z,26.20
2022-08-02T09:08:19.277Z,26.30
2022-08-02T09:13:37.765Z,26.40
2022-08-02T09:18:48.988Z,26.50
2022-08-02T09:23:53.313Z,26.50
2022-08-02T09:29:02.261Z,26.90
2022-08-02T09:34:05.199Z,27.10
2022-08-02T09:39:13.359Z,27.20
2022-08-02T09:44:17.183Z,26.80
2022-08-02T09:49:20.536Z,27.10
2022-08-02T09:54:29.037Z,27.60
2022-08-02T09:59:32.033Z,28.40
2022-08-02T10:04:52.470Z,27.80
2022-08-02T10:09:57.532Z,28.40
2022-08-02T10:15:00.729Z,27.20
2022-08-02T10:20:05.125Z,28.60
2022-08-02T10:25:09.249Z,28.50
2022-08-02T10:30:12.559Z,28.70
2022-08-02T10:35:25.594Z,28.40
2022-08-02T10:40:49.010Z,28.90
2022-08-02T10:45:51.817Z,27.90
2022-08-02T10:50:54.905Z,28.70
2022-08-02T10:56:02.190Z,29.70
2022-08-02T11:01:06.942Z,28.80
2022-08-02T11:06:25.584Z,29.40
2022-08-02T11:11:53.546Z,30.30
2022-08-02T11:16:55.447Z,28.00
2022-08-02T11:22:25.199Z,27.80
2022-08-02T11:27:31.615Z,26.70
2022-08-02T11:32:36.828Z,27.70
2022-08-02T11:37:44.970Z,27.90
2022-08-02T11:42:53.893Z,29.10
2022-08-02T11:47:56.658Z,27.80
2022-08-02T11:53:00.074Z,27.00
2022-08-02T11:58:06.428Z,26.60
2022-08-02T12:03:09.789Z,27.90
2022-08-02T12:08:12.857Z,27.90
2022-08-02T12:13:16.199Z,29.10
2022-08-02T12:18:40.302Z,28.00
2022-08-02T12:24:00.509Z,27.60
2022-08-02T12:29:04.100Z,28.70
2022-08-02T12:34:17.242Z,29.40
2022-08-02T12:39:20.051Z,29.20
2022-08-02T12:44:22.760Z,27.90
2022-08-02T12:49:25.870Z,28.10
2022-08-02T12:54:39.749Z,28.80
2022-08-02T12:59:45.534Z,29.60
2022-08-02T13:04:49.766Z,28.40
2022-08-02T13:10:02.630Z,28.40
2022-08-02T13:15:12.372Z,29.40
2022-08-02T13:20:31.214Z,29.10
2022-08-02T13:25:34.703Z,29.80
2022-08-02T13:30:38.589Z,28.10
2022-08-02T13:35:41.964Z,29.00
2022-08-02T13:41:04.830Z,30.00
2022-08-02T13:46:08.699Z,29.70
2022-08-02T13:51:14.881Z,28.50
2022-08-02T13:56:18.083Z,28.20
2022-08-02T14:01:20.991Z,27.70
2022-08-02T14:06:23.936Z,28.00
2022-08-02T14:11:26.709Z,27.90
2022-08-02T14:16:33.048Z,28.40
2022-08-02T14:21:46.574Z,27.80
2022-08-02T14:26:51.690Z,28.00
2022-08-02T14:31:54.609Z,28.40
2022-08-02T14:36:57.488Z,28.40
2022-08-02T14:42:10.647Z,28.50
2022-08-02T14:47:13.471Z,28.20
2022-08-02T14:52:16.489Z,27.00
2022-08-02T14:57:19.299Z,26.60
2022-08-02T15:02:22.212Z,27.20
2022-08-02T15:07:25.187Z,27.70
2022-08-02T15:12:28.120Z,27.70
2022-08-02T15:17:32.175Z,27.90
2022-08-02T15:22:34.908Z,27.40
2022-08-02T15:27:37.730Z,28.50
2022-08-02T15:32:52.617Z,28.80
2022-08-02T15:37:56.412Z,28.00
2022-08-02T15:42:59.715Z,28.10
2022-08-02T15:48:03.379Z,28.00
2022-08-02T15:53:06.389Z,27.60
2022-08-02T15:58:09.310Z,27.60
2022-08-02T16:03:20.210Z,27.40
2022-08-02T16:08:23.079Z,27.30
2022-08-02T16:13:53.071Z,27.10
2022-08-02T16:18:57.708Z,27.30
2022-08-02T16:24:02.336Z,27.00
2022-08-02T16:29:06.480Z,26.80
2022-08-02T16:34:09.450Z,26.50
2022-08-02T16:39:12.609Z,26.50
2022-08-02T16:44:15.523Z,26.20
2022-08-02T16:50:05.091Z,26.30
2022-08-02T16:54:43.056Z,26.00
2022-08-02T16:59:58.294Z,26.00
2022-08-02T17:05:13.675Z,25.90
2022-08-02T17:10:18.960Z,25.50
2022-08-02T17:15:52.898Z,25.30
2022-08-02T17:20:45.229Z,25.00
2022-08-02T17:25:52.632Z,24.80
2022-08-02T17:30:55.799Z,24.60
2022-08-02T17:36:00.052Z,24.40
2022-08-02T17:41:04.250Z,24.10
2022-08-02T17:46:07.663Z,23.80
2022-08-02T17:51:10.823Z,23.50
2022-08-02T17:56:13.954Z,23.00
2022-08-02T18:01:23.761Z,22.60
2022-08-02T18:06:27.001Z,22.10
2022-08-02T18:11:52.185Z,21.80
2022-08-02T18:16:53.191Z,21.30
2022-08-02T18:21:56.151Z,20.80
2022-08-02T18:26:58.929Z,20.60
2022-08-02T18:32:01.839Z,20.30
2022-08-02T18:37:04.595Z,20.20
2022-08-02T18:42:09.914Z,19.90
2022-08-02T18:47:13.342Z,19.70
2022-08-02T18:52:16.842Z,19.50
2022-08-02T19:02:59.432Z,19.20
2022-08-02T19:08:02.514Z,19.10
2022-08-02T19:13:17.701Z,18.80
2022-08-02T19:18:26.934Z,18.80
2022-08-02T19:23:33.274Z,18.50
2022-08-02T19:28:36.339Z,18.40
2022-08-02T19:34:04.793Z,18.50
2022-08-02T19:39:02.486Z,18.30
2022-08-02T19:44:23.313Z,18.20
2022-08-02T19:49:39.561Z,18.60
2022-08-02T19:54:54.942Z,18.70
2022-08-02T19:59:59.530Z,18.60
2022-08-02T20:05:16.136Z,18.30
2022-08-02T20:10:23.856Z,18.10
2022-08-02T20:15:56.510Z,17.90
2022-08-02T20:20:50.941Z,17.80
2022-08-02T20:25:54.660Z,17.70
2022-08-02T20:30:59.329Z,17.60
2022-08-02T20:36:10.249Z,17.50
2022-08-02T20:41:13.070Z,17.40
2022-08-02T20:46:24.650Z,17.30
2022-08-02T20:51:33.475Z,17.10
2022-08-02T20:56:37.840Z,17.10
2022-08-02T21:01:41.253Z,17.10
2022-08-02T21:07:00.485Z,16.90
2022-08-02T21:12:05.810Z,16.90
2022-08-02T21:17:10.820Z,16.90
2022-08-02T21:22:14.544Z,16.90
2022-08-02T21:27:52.990Z,16.80
2022-08-02T21:32:41.240Z,16.70
2022-08-02T21:37:45.330Z,16.70
2022-08-02T21:42:48.191Z,16.60
2022-08-02T21:47:52.191Z,16.50
2022-08-02T21:52:55.131Z,16.50
2022-08-02T21:57:58.091Z,16.50
2022-08-02T22:03:01.002Z,16.40
2022-08-02T22:08:23.820Z,16.30
2022-08-02T22:13:26.654Z,16.40
2022-08-02T22:18:41.358Z,16.30
2022-08-02T22:23:53.253Z,16.20
2022-08-02T22:28:59.672Z,16.20
2022-08-02T22:34:11.530Z,16.00
2022-08-02T22:39:29.795Z,16.10
2022-08-02T22:44:32.519Z,16.00
2022-08-02T22:49:38.423Z,16.00
2022-08-02T22:54:48.420Z,16.00
2022-08-02T22:58:59.657Z,19.40
2022-08-02T22:59:51.385Z,15.80
2022-08-02T23:04:54.142Z,15.80
2022-08-02T23:09:56.969Z,15.80
2022-08-02T23:15:00.624Z,15.70
2022-08-02T23:20:04.710Z,15.80
2022-08-02T23:25:09.646Z,15.60
2022-08-02T23:30:12.666Z,15.60
2022-08-02T23:35:16.949Z,15.60
2022-08-02T23:40:39.844Z,15.50
2022-08-02T23:45:46.552Z,15.50
2022-08-02T23:50:49.493Z,15.40
2022-08-02T23:55:52.287Z,15.50
